createdAt,value
2022-09-17T00:01:42.897Z,17.67
2022-09-17T00:04:11.780Z,17.67
2022-09-17T00:06:41.587Z,17.64
2022-09-17T00:09:10.578Z,17.60
2022-09-17T00:11:41.097Z,17.63
2022-09-17T00:14:14.649Z,17.58
2022-09-17T00:16:45.389Z,17.52
2022-09-17T00:19:15.368Z,17.59
2022-09-17T00:21:43.831Z,17.50
2022-09-17T00:24:13.816Z,17.50
2022-09-17T00:26:42.158Z,17.50
2022-09-17T00:29:13.037Z,17.47
2022-09-17T00:31:41.801Z,17.45
2022-09-17T00:34:10.227Z,17.43
2022-09-17T00:36:40.236Z,17.41
2022-09-17T00:39:10.547Z,17.42
2022-09-17T00:41:39.869Z,17.49
2022-09-17T00:44:48.194Z,17.42
2022-09-17T00:47:21.527Z,17.46
2022-09-17T00:49:52.526Z,17.48
2022-09-17T00:52:24.815Z,17.37
2022-09-17T00:54:57.809Z,17.39
2022-09-17T00:57:26.125Z,17.46
2022-09-17T00:59:57.224Z,17.46
2022-09-17T01:02:26.696Z,17.51
2022-09-17T01:04:56.186Z,17.42
2022-09-17T01:07:37.822Z,17.53
2022-09-17T01:10:15.562Z,17.52
2022-09-17T01:13:05.391Z,17.54
2022-09-17T01:15:42.445Z,17.65
2022-09-17T01:18:37.405Z,17.51
2022-09-17T01:21:38.350Z,17.59
2022-09-17T01:24:45.913Z,17.56
2022-09-17T01:27:45.783Z,17.66
2022-09-17T01:30:22.930Z,17.66
2022-09-17T01:32:58.281Z,17.67
2022-09-17T01:35:34.241Z,17.65
2022-09-17T01:38:11.006Z,17.72
2022-09-17T01:40:47.909Z,17.73
2022-09-17T01:43:24.577Z,17.76
2022-09-17T01:45:57.005Z,17.78
2022-09-17T01:48:30.300Z,17.68
2022-09-17T01:51:05.122Z,17.65
2022-09-17T01:53:42.542Z,17.65
2022-09-17T01:56:14.560Z,17.59
2022-09-17T01:58:47.923Z,17.58
2022-09-17T02:01:20.175Z,17.61
2022-09-17T02:03:57.240Z,17.49
2022-09-17T02:06:30.187Z,17.45
2022-09-17T02:09:02.534Z,17.43
2022-09-17T02:11:37.062Z,17.47
2022-09-17T02:14:09.123Z,17.44
2022-09-17T02:16:40.880Z,17.45
2022-09-17T02:19:14.177Z,17.47
2022-09-17T02:21:48.025Z,17.40
2022-09-17T02:24:20.835Z,17.37
2022-09-17T02:26:56.977Z,17.39
2022-09-17T02:29:32.100Z,17.45
2022-09-17T02:32:00.973Z,17.46
2022-09-17T02:34:30.775Z,17.33
2022-09-17T02:37:00.335Z,17.33
2022-09-17T02:39:29.386Z,17.40
2022-09-17T02:42:07.139Z,17.37
2022-09-17T02:44:46.311Z,17.32
2022-09-17T02:47:54.413Z,17.16
2022-09-17T02:50:38.508Z,17.20
2022-09-17T02:53:26.174Z,17.11
2022-09-17T02:56:04.493Z,17.17
2022-09-17T02:58:42.251Z,17.17
2022-09-17T03:01:18.123Z,17.17
2022-09-17T03:03:50.282Z,17.23
2022-09-17T03:06:20.162Z,17.12
2022-09-17T03:08:48.916Z,17.16
2022-09-17T03:11:16.837Z,17.16
2022-09-17T03:13:45.035Z,17.14
2022-09-17T03:16:13.121Z,17.21
2022-09-17T03:18:41.254Z,17.26
2022-09-17T03:21:09.610Z,17.21
2022-09-17T03:23:39.847Z,17.21
2022-09-17T03:26:07.792Z,17.26
2022-09-17T03:28:35.916Z,17.24
2022-09-17T03:31:05.681Z,17.11
2022-09-17T03:33:33.854Z,17.21
2022-09-17T03:36:02.495Z,17.02
2022-09-17T03:38:30.512Z,16.92
2022-09-17T03:41:01.548Z,16.89
2022-09-17T03:43:30.157Z,16.83
2022-09-17T03:45:58.214Z,16.81
2022-09-17T03:48:26.131Z,16.81
2022-09-17T03:50:54.275Z,16.86
2022-09-17T03:53:23.700Z,16.86
2022-09-17T03:56:02.815Z,16.89
2022-09-17T03:58:32.252Z,16.91
2022-09-17T04:01:00.457Z,16.84
2022-09-17T04:03:29.525Z,16.95
2022-09-17T04:05:57.612Z,16.81
2022-09-17T04:08:25.604Z,16.81
2022-09-17T04:10:53.912Z,16.81
2022-09-17T04:13:23.168Z,16.85
2022-09-17T04:15:52.068Z,16.81
2022-09-17T04:18:20.448Z,16.69
2022-09-17T04:20:48.387Z,16.75
2022-09-17T04:23:16.294Z,16.82
2022-09-17T04:25:44.477Z,16.76
2022-09-17T04:28:12.691Z,16.77
2022-09-17T04:30:42.982Z,16.80
2022-09-17T04:33:12.159Z,16.78
2022-09-17T04:35:40.161Z,16.72
2022-09-17T04:38:08.052Z,16.83
2022-09-17T04:40:36.491Z,16.89
2022-09-17T04:43:04.458Z,16.91
2022-09-17T04:45:33.593Z,16.84
2022-09-17T04:48:03.897Z,16.90
2022-09-17T04:50:52.277Z,16.98
2022-09-17T04:53:21.255Z,17.04
2022-09-17T04:55:49.130Z,17.01
2022-09-17T04:58:17.062Z,17.03
2022-09-17T05:00:45.350Z,17.05
2022-09-17T05:03:14.701Z,17.11
2022-09-17T05:05:42.582Z,17.13
2022-09-17T05:08:10.698Z,17.06
2022-09-17T05:10:38.690Z,17.28
2022-09-17T05:13:06.661Z,17.29
2022-09-17T05:15:34.792Z,17.34
2022-09-17T05:18:02.949Z,17.23
2022-09-17T05:20:32.171Z,17.21
2022-09-17T05:23:00.365Z,17.41
2022-09-17T05:25:28.344Z,17.33
2022-09-17T05:27:56.383Z,17.47
2022-09-17T05:30:24.789Z,17.35
2022-09-17T05:33:00.537Z,17.27
2022-09-17T05:35:29.152Z,17.46
2022-09-17T05:38:03.815Z,17.36
2022-09-17T05:40:32.825Z,17.36
2022-09-17T05:43:02.109Z,17.50
2022-09-17T05:45:30.582Z,17.34
2022-09-17T05:48:00.054Z,17.42
2022-09-17T05:50:29.548Z,17.43
2022-09-17T05:52:59.287Z,17.58
2022-09-17T05:55:29.135Z,17.56
2022-09-17T05:57:57.017Z,17.47
2022-09-17T06:00:25.060Z,17.56
2022-09-17T06:02:56.386Z,17.45
2022-09-17T06:05:28.603Z,17.35
2022-09-17T06:07:57.301Z,17.42
2022-09-17T06:10:25.329Z,17.46
2022-09-17T06:12:57.989Z,17.50
2022-09-17T06:15:27.502Z,17.57
2022-09-17T06:17:58.046Z,17.75
2022-09-17T06:20:26.422Z,17.72
2022-09-17T06:22:57.596Z,17.72
2022-09-17T06:25:26.585Z,17.74
2022-09-17T06:27:54.848Z,17.85
2022-09-17T06:30:24.230Z,17.68
2022-09-17T06:32:52.082Z,17.94
2022-09-17T06:35:22.325Z,17.85
2022-09-17T06:37:50.458Z,17.99
2022-09-17T06:40:18.692Z,18.01
2022-09-17T06:42:47.114Z,17.92
2022-09-17T06:45:16.925Z,18.18
2022-09-17T06:47:46.530Z,18.41
2022-09-17T06:50:14.956Z,18.34
2022-09-17T06:52:50.204Z,18.24
2022-09-17T06:55:18.946Z,18.30
2022-09-17T06:57:46.918Z,18.35
2022-09-17T07:00:19.083Z,18.34
2022-09-17T07:02:57.703Z,18.46
2022-09-17T07:05:26.011Z,18.39
2022-09-17T07:07:54.647Z,18.47
2022-09-17T07:10:24.236Z,18.71
2022-09-17T07:12:52.175Z,18.77
2022-09-17T07:15:20.536Z,18.75
2022-09-17T07:17:48.444Z,18.74
2022-09-17T07:20:18.081Z,18.64
2022-09-17T07:22:46.720Z,18.82
2022-09-17T07:25:15.926Z,19.10
2022-09-17T07:27:43.801Z,19.13
2022-09-17T07:30:13.507Z,19.05
2022-09-17T07:32:41.937Z,18.78
2022-09-17T07:35:10.239Z,18.87
2022-09-17T07:37:40.017Z,18.97
2022-09-17T07:40:09.298Z,19.00
2022-09-17T07:42:37.446Z,19.21
2022-09-17T07:45:06.674Z,19.07
2022-09-17T07:47:39.861Z,19.16
2022-09-17T07:50:09.534Z,19.10
2022-09-17T07:52:46.869Z,19.06
2022-09-17T07:55:15.973Z,19.36
2022-09-17T07:57:44.090Z,19.03
2022-09-17T08:00:14.450Z,19.18
2022-09-17T08:02:44.078Z,18.95
2022-09-17T08:05:12.343Z,18.94
2022-09-17T08:07:41.653Z,19.02
2022-09-17T08:10:10.784Z,18.67
2022-09-17T08:12:38.906Z,18.88
2022-09-17T08:15:08.011Z,18.94
2022-09-17T08:17:37.999Z,19.11
2022-09-17T08:20:07.338Z,19.30
2022-09-17T08:22:35.432Z,19.36
2022-09-17T08:25:05.588Z,19.34
2022-09-17T08:27:33.872Z,19.60
2022-09-17T08:30:02.023Z,19.48
2022-09-17T08:32:31.355Z,19.68
2022-09-17T08:34:59.659Z,19.89
2022-09-17T08:37:29.825Z,19.99
2022-09-17T08:39:58.663Z,20.10
2022-09-17T08:42:34.599Z,20.28
2022-09-17T08:45:05.027Z,20.21
2022-09-17T08:47:37.724Z,20.01
2022-09-17T08:50:08.441Z,20.21
2022-09-17T08:53:08.971Z,19.96
2022-09-17T08:55:43.704Z,19.90
2022-09-17T08:58:29.123Z,19.96
2022-09-17T09:01:05.700Z,19.82
2022-09-17T09:03:49.786Z,19.78
2022-09-17T09:06:21.676Z,20.03
2022-09-17T09:08:53.066Z,20.31
2022-09-17T09:11:26.547Z,20.20
2022-09-17T09:14:01.438Z,20.08
2022-09-17T09:16:33.524Z,19.80
2022-09-17T09:19:15.582Z,19.56
2022-09-17T09:21:55.087Z,19.44
2022-09-17T09:24:26.195Z,19.62
2022-09-17T09:27:02.260Z,19.77
2022-09-17T09:29:41.683Z,19.90
2022-09-17T09:32:25.618Z,20.14
2022-09-17T09:34:56.974Z,20.43
2022-09-17T09:37:27.976Z,20.78
2022-09-17T09:40:02.122Z,20.74
2022-09-17T09:42:32.233Z,21.00
2022-09-17T09:45:05.571Z,20.96
2022-09-17T09:47:45.980Z,20.63
2022-09-17T09:50:48.365Z,20.31
2022-09-17T09:53:27.078Z,20.55
2022-09-17T09:56:06.980Z,20.34
2022-09-17T09:58:37.560Z,20.37
2022-09-17T10:01:13.888Z,20.34
2022-09-17T10:03:46.086Z,20.62
2022-09-17T10:06:15.443Z,20.76
2022-09-17T10:09:12.109Z,20.86
2022-09-17T10:11:40.596Z,20.87
2022-09-17T10:14:27.021Z,21.02
2022-09-17T10:17:12.901Z,21.03
2022-09-17T10:19:41.767Z,20.89
2022-09-17T10:22:21.584Z,21.03
2022-09-17T10:24:53.009Z,21.32
2022-09-17T10:27:23.663Z,21.43
2022-09-17T10:30:04.204Z,21.56
2022-09-17T10:32:32.177Z,21.84
2022-09-17T10:35:05.256Z,21.69
2022-09-17T10:37:36.504Z,21.28
2022-09-17T10:40:28.034Z,21.26
2022-09-17T10:43:22.879Z,21.18
2022-09-17T10:46:00.703Z,21.02
2022-09-17T10:48:33.737Z,20.91
2022-09-17T10:51:03.436Z,21.21
2022-09-17T10:53:31.354Z,21.37
2022-09-17T10:56:14.987Z,21.85
2022-09-17T10:58:53.603Z,21.87
2022-09-17T11:01:37.449Z,21.77
2022-09-17T11:04:27.477Z,21.90
2022-09-17T11:07:21.136Z,22.06
2022-09-17T11:09:57.491Z,22.18
2022-09-17T11:12:42.042Z,22.15
2022-09-17T11:15:23.539Z,21.87
2022-09-17T11:18:15.808Z,21.87
2022-09-17T11:21:08.399Z,21.75
2022-09-17T11:23:56.070Z,21.84
2022-09-17T11:26:33.590Z,21.72
2022-09-17T11:29:17.880Z,21.94
2022-09-17T11:34:29.746Z,21.67
2022-09-17T11:37:05.598Z,21.87
2022-09-17T11:39:39.471Z,22.27
2022-09-17T11:42:13.331Z,22.56
2022-09-17T11:44:49.856Z,22.48
2022-09-17T11:47:22.608Z,22.68
2022-09-17T11:49:55.967Z,22.86
2022-09-17T11:52:27.428Z,22.83
2022-09-17T11:55:01.509Z,22.77
2022-09-17T11:57:33.904Z,22.94
2022-09-17T12:00:07.690Z,23.20
2022-09-17T12:02:49.610Z,22.83
2022-09-17T12:05:20.885Z,22.65
2022-09-17T12:07:55.389Z,22.54
2022-09-17T12:10:37.211Z,22.52
2022-09-17T12:13:17.680Z,22.70
2022-09-17T12:15:53.345Z,22.83
2022-09-17T12:18:34.899Z,23.20
2022-09-17T12:21:09.286Z,23.32
2022-09-17T12:23:41.762Z,23.10
2022-09-17T12:26:22.198Z,23.27
2022-09-17T12:28:59.258Z,23.45
2022-09-17T12:31:37.373Z,23.40
2022-09-17T12:34:23.811Z,23.30
2022-09-17T12:37:03.302Z,23.47
2022-09-17T12:40:09.618Z,23.48
2022-09-17T12:42:57.904Z,23.13
2022-09-17T12:45:40.109Z,22.93
2022-09-17T12:48:39.281Z,22.80
2022-09-17T12:51:25.402Z,22.54
2022-09-17T12:54:06.481Z,22.70
2022-09-17T12:56:51.102Z,22.30
2022-09-17T12:59:20.808Z,22.38
2022-09-17T13:01:54.006Z,22.57
2022-09-17T13:04:59.903Z,22.59
2022-09-17T13:08:09.016Z,22.67
2022-09-17T13:10:46.197Z,22.54
2022-09-17T13:13:29.351Z,22.57
2022-09-17T13:16:08.416Z,22.71
2022-09-17T13:19:15.022Z,22.82
2022-09-17T13:21:50.110Z,22.84
2022-09-17T13:24:25.693Z,22.97
2022-09-17T13:26:58.177Z,23.25
2022-09-17T13:30:01.213Z,23.04
2022-09-17T13:32:49.887Z,23.00
2022-09-17T13:35:50.011Z,22.65
2022-09-17T13:38:23.699Z,22.57
2022-09-17T13:40:53.252Z,22.26
2022-09-17T13:43:27.118Z,22.53
2022-09-17T13:46:12.762Z,22.30
2022-09-17T13:48:51.033Z,22.40
2022-09-17T13:51:52.840Z,22.27
2022-09-17T13:54:25.692Z,22.04
2022-09-17T13:57:10.072Z,21.77
2022-09-17T13:59:39.186Z,21.73
2022-09-17T14:02:36.322Z,21.53
2022-09-17T14:05:34.487Z,21.24
2022-09-17T14:08:28.565Z,21.39
2022-09-17T14:11:01.049Z,21.59
2022-09-17T14:13:50.917Z,21.77
2022-09-17T14:16:35.706Z,21.39
2022-09-17T14:19:19.504Z,21.67
2022-09-17T14:21:59.613Z,21.49
2022-09-17T14:24:33.462Z,21.10
2022-09-17T14:27:12.956Z,21.32
2022-09-17T14:30:00.330Z,21.41
2022-09-17T14:32:32.326Z,21.33
2022-09-17T14:35:02.356Z,21.18
2022-09-17T14:37:30.876Z,21.31
2022-09-17T14:40:00.022Z,21.51
2022-09-17T14:42:35.665Z,21.79
2022-09-17T14:45:09.320Z,22.12
2022-09-17T14:47:37.305Z,22.01
2022-09-17T14:50:21.545Z,22.44
2022-09-17T14:52:50.758Z,22.43
2022-09-17T14:55:21.198Z,22.50
2022-09-17T14:57:53.931Z,22.42
2022-09-17T15:00:25.076Z,22.32
2022-09-17T15:02:55.786Z,22.02
2022-09-17T15:05:27.146Z,22.05
2022-09-17T15:08:07.818Z,21.88
2022-09-17T15:10:37.237Z,21.69
2022-09-17T15:13:14.657Z,21.59
2022-09-17T15:15:53.886Z,21.36
2022-09-17T15:18:23.147Z,21.36
2022-09-17T15:21:01.896Z,21.18
2022-09-17T15:23:37.603Z,21.26
2022-09-17T15:26:07.146Z,21.09
2022-09-17T15:28:40.061Z,20.98
2022-09-17T15:31:18.056Z,20.99
2022-09-17T15:33:47.372Z,20.95
2022-09-17T15:36:21.477Z,20.94
2022-09-17T15:38:50.176Z,20.92
2022-09-17T15:41:28.259Z,20.79
2022-09-17T15:44:28.371Z,20.64
2022-09-17T15:46:56.847Z,20.59
2022-09-17T15:49:31.346Z,20.42
2022-09-17T15:52:32.874Z,20.21
2022-09-17T15:55:01.067Z,19.88
2022-09-17T15:57:32.324Z,19.98
2022-09-17T16:00:13.894Z,19.95
2022-09-17T16:02:42.198Z,19.59
2022-09-17T16:05:51.826Z,19.49
2022-09-17T16:08:25.363Z,19.19
2022-09-17T16:10:56.649Z,19.24
2022-09-17T16:13:30.451Z,19.18
2022-09-17T16:16:00.154Z,19.09
2022-09-17T16:18:28.432Z,18.98
2022-09-17T16:20:56.354Z,18.84
2022-09-17T16:23:24.819Z,18.80
2022-09-17T16:25:52.995Z,18.77
2022-09-17T16:28:24.579Z,18.46
2022-09-17T16:30:53.198Z,18.29
2022-09-17T16:33:22.451Z,18.24
2022-09-17T16:36:03.531Z,18.05
2022-09-17T16:38:36.615Z,18.10
2022-09-17T16:41:08.151Z,18.07
2022-09-17T16:43:36.284Z,18.10
2022-09-17T16:46:06.728Z,18.00
2022-09-17T16:48:49.373Z,17.81
2022-09-17T16:51:20.840Z,17.80
2022-09-17T16:53:50.091Z,17.79
2022-09-17T16:56:18.317Z,17.63
2022-09-17T16:58:46.319Z,17.63
2022-09-17T17:01:16.395Z,17.53
2022-09-17T17:03:54.927Z,17.50
2022-09-17T17:06:23.172Z,17.32
2022-09-17T17:08:51.792Z,17.29
2022-09-17T17:11:20.005Z,17.27
2022-09-17T17:13:48.319Z,17.17
2022-09-17T17:16:16.640Z,17.09
2022-09-17T17:18:46.136Z,16.94
2022-09-17T17:21:15.388Z,16.76
2022-09-17T17:23:44.449Z,16.73
2022-09-17T17:26:12.255Z,16.59
2022-09-17T17:28:40.103Z,16.48
2022-09-17T17:31:08.256Z,16.42
2022-09-17T17:33:36.477Z,16.38
2022-09-17T17:36:08.334Z,16.50
2022-09-17T17:38:37.316Z,16.50
2022-09-17T17:41:07.232Z,16.51
2022-09-17T17:43:35.545Z,16.49
2022-09-17T17:46:06.825Z,16.49
2022-09-17T17:48:34.983Z,16.52
2022-09-17T17:51:06.271Z,16.50
2022-09-17T17:53:34.385Z,16.37
2022-09-17T17:56:05.803Z,16.45
2022-09-17T17:58:34.506Z,16.51
2022-09-17T18:01:10.767Z,16.55
2022-09-17T18:03:39.025Z,16.48
2022-09-17T18:06:09.063Z,16.50
2022-09-17T18:08:38.247Z,16.53
2022-09-17T18:11:08.208Z,16.57
2022-09-17T18:13:37.064Z,16.54
2022-09-17T18:16:07.571Z,16.51
2022-09-17T18:18:43.521Z,16.44
2022-09-17T18:21:15.973Z,16.38
2022-09-17T18:23:45.030Z,16.25
2022-09-17T18:26:14.810Z,16.26
2022-09-17T18:28:42.821Z,16.04
2022-09-17T18:31:20.822Z,16.12
2022-09-17T18:33:57.853Z,16.17
2022-09-17T18:36:29.706Z,16.17
2022-09-17T18:39:11.071Z,16.05
2022-09-17T18:41:49.767Z,16.09
2022-09-17T18:44:19.003Z,16.04
2022-09-17T18:46:48.027Z,16.01
2022-09-17T18:49:16.630Z,15.87
2022-09-17T18:51:45.994Z,16.02
2022-09-17T18:54:14.122Z,15.96
2022-09-17T18:56:42.557Z,16.08
2022-09-17T18:59:11.217Z,15.96
2022-09-17T19:01:39.634Z,15.94
2022-09-17T19:04:08.346Z,15.87
2022-09-17T19:06:36.278Z,15.70
2022-09-17T19:09:06.318Z,15.79
2022-09-17T19:11:36.121Z,15.73
2022-09-17T19:14:04.254Z,15.83
2022-09-17T19:16:32.236Z,15.81
2022-09-17T19:19:00.499Z,15.69
2022-09-17T19:21:28.385Z,15.78
2022-09-17T19:23:56.287Z,15.71
2022-09-17T19:26:27.393Z,15.68
2022-09-17T19:28:57.760Z,15.64
2022-09-17T19:31:27.065Z,15.73
2022-09-17T19:33:55.349Z,15.56
2022-09-17T19:36:23.288Z,15.50
2022-09-17T19:38:51.531Z,15.52
2022-09-17T19:41:23.223Z,15.47
2022-09-17T19:43:54.454Z,15.65
2022-09-17T19:46:24.050Z,15.48
2022-09-17T19:48:54.514Z,15.52
2022-09-17T19:51:24.140Z,15.48
2022-09-17T19:53:52.509Z,15.65
2022-09-17T19:56:22.262Z,15.49
2022-09-17T19:58:50.407Z,15.55
2022-09-17T20:01:22.188Z,15.55
2022-09-17T20:03:50.383Z,15.41
2022-09-17T20:06:20.696Z,15.35
2022-09-17T20:08:50.132Z,15.52
2022-09-17T20:11:22.649Z,15.63
2022-09-17T20:13:50.721Z,15.46
2022-09-17T20:16:22.035Z,15.30
2022-09-17T20:18:50.337Z,15.32
2022-09-17T20:21:20.131Z,15.43
2022-09-17T20:23:48.363Z,15.41
2022-09-17T20:26:16.993Z,15.33
2022-09-17T20:28:45.942Z,15.27
2022-09-17T20:31:16.286Z,15.21
2022-09-17T20:33:46.665Z,15.15
2022-09-17T20:36:17.009Z,15.18
2022-09-17T20:41:34.341Z,15.10
2022-09-17T20:44:02.427Z,15.15
2022-09-17T20:46:30.445Z,15.03
2022-09-17T20:49:00.149Z,15.08
2022-09-17T20:51:29.551Z,15.10
2022-09-17T20:53:58.033Z,15.17
2022-09-17T20:56:28.255Z,15.21
2022-09-17T20:59:03.930Z,15.18
2022-09-17T21:01:34.436Z,15.03
2022-09-17T21:04:05.936Z,15.14
2022-09-17T21:06:35.801Z,15.17
2022-09-17T21:09:04.278Z,15.02
2022-09-17T21:11:32.237Z,15.17
2022-09-17T21:14:00.874Z,15.19
2022-09-17T21:16:29.226Z,15.17
2022-09-17T21:18:58.201Z,15.25
2022-09-17T21:21:28.336Z,15.37
2022-09-17T21:24:01.076Z,15.20
2022-09-17T21:26:29.912Z,15.34
2022-09-17T21:28:58.391Z,15.41
2022-09-17T21:31:32.099Z,15.39
2022-09-17T21:34:02.438Z,15.43
2022-09-17T21:36:33.239Z,15.52
2022-09-17T21:39:03.828Z,15.46
2022-09-17T21:41:32.527Z,15.38
2022-09-17T21:44:00.449Z,15.31
2022-09-17T21:46:30.494Z,15.43
2022-09-17T21:49:02.080Z,15.47
2022-09-17T21:51:34.024Z,15.46
2022-09-17T21:54:04.075Z,15.40
2022-09-17T21:56:32.932Z,15.33
2022-09-17T21:59:02.721Z,15.01
2022-09-17T22:01:32.692Z,15.25
2022-09-17T22:04:02.065Z,15.25
2022-09-17T22:06:32.929Z,15.18
2022-09-17T22:09:02.779Z,15.20
2022-09-17T22:11:33.033Z,15.15
2022-09-17T22:14:05.127Z,15.07
2022-09-17T22:16:35.937Z,15.29
2022-09-17T22:19:05.480Z,15.06
2022-09-17T22:21:36.435Z,15.19
2022-09-17T22:24:09.187Z,15.06
2022-09-17T22:26:39.335Z,15.05
2022-09-17T22:29:09.933Z,15.21
2022-09-17T22:31:37.915Z,15.21
2022-09-17T22:34:08.857Z,15.14
2022-09-17T22:36:39.537Z,15.15
2022-09-17T22:39:11.052Z,15.05
2022-09-17T22:41:45.850Z,15.02
2022-09-17T22:44:17.707Z,15.02
2022-09-17T22:46:47.614Z,15.26
2022-09-17T22:49:16.861Z,15.19
2022-09-17T22:51:47.594Z,14.99
2022-09-17T22:54:18.318Z,14.62
2022-09-17T22:56:49.407Z,14.74
2022-09-17T22:59:18.858Z,14.77
2022-09-17T23:01:47.372Z,14.80
2022-09-17T23:04:15.463Z,14.72
2022-09-17T23:06:46.450Z,14.85
2022-09-17T23:09:14.950Z,14.83
2022-09-17T23:11:43.440Z,14.77
2022-09-17T23:14:14.167Z,14.67
2022-09-17T23:16:44.358Z,14.65
2022-09-17T23:19:12.753Z,14.78
2022-09-17T23:21:41.471Z,14.54
2022-09-17T23:24:14.765Z,14.67
2022-09-17T23:26:42.861Z,14.72
2022-09-17T23:29:11.372Z,14.82
2022-09-17T23:31:40.166Z,14.73
2022-09-17T23:34:14.516Z,14.71
2022-09-17T23:36:42.611Z,14.76
2022-09-17T23:39:16.166Z,14.82
2022-09-17T23:41:45.454Z,14.73
2022-09-17T23:44:16.270Z,14.66
2022-09-17T23:46:46.210Z,14.53
2022-09-17T23:49:16.141Z,14.78
2022-09-17T23:51:47.355Z,14.72
2022-09-17T23:54:18.384Z,14.79
2022-09-17T23:56:46.298Z,14.97
2022-09-17T23:59:14.178Z,14.89
